Time;durP1;ratioP1;P1;durP2;ratioP2;P2;SDS_P1;SDS_P2;PMS_P1;PMS_P2;Temp;Humidity;BMP_temperature;BMP_pressure;BME280_temperature;BME280_humidity;BME280_pressure;Samples;Min_cycle;Max_cycle;Signal;HPM_P1;HPM_P2
2022/11/15 00:00:24;;;;;;;23.02;15.93;;;8.70;99.90;;;;;;4959123;28;20078;-81
2022/11/15 00:02:49;;;;;;;21.88;15.45;;;8.70;99.90;;;;;;4964738;28;20459;-81
2022/11/15 00:05:15;;;;;;;21.27;15.75;;;8.70;99.90;;;;;;4962942;28;20050;-81
2022/11/15 00:07:40;;;;;;;18.58;13.93;;;8.70;99.90;;;;;;4966702;28;20039;-81
2022/11/15 00:10:06;;;;;;;20.13;15.13;;;8.70;99.90;;;;;;4971734;28;20407;-81
2022/11/15 00:12:32;;;;;;;21.00;15.90;;;8.60;99.90;;;;;;4965022;28;20050;-81
2022/11/15 00:14:58;;;;;;;19.33;14.90;;;8.60;99.90;;;;;;4956911;28;20089;-81
2022/11/15 00:17:23;;;;;;;21.08;15.32;;;8.60;99.90;;;;;;4989344;28;20517;-81
2022/11/15 00:19:49;;;;;;;19.38;14.82;;;8.60;99.90;;;;;;4979251;28;20038;-81
2022/11/15 00:22:14;;;;;;;22.55;15.95;;;8.60;99.90;;;;;;4965543;28;20035;-82
2022/11/15 00:24:40;;;;;;;20.02;14.77;;;8.50;99.90;;;;;;4965956;28;20042;-81
2022/11/15 00:27:06;;;;;;;19.95;14.77;;;8.50;99.90;;;;;;4974652;28;20031;-81
2022/11/15 00:29:31;;;;;;;19.73;14.75;;;8.50;99.90;;;;;;4974894;28;20046;-81
2022/11/15 00:31:57;;;;;;;20.10;15.85;;;8.50;99.90;;;;;;4977346;28;20039;-81
2022/11/15 00:34:22;;;;;;;21.58;15.52;;;8.50;99.90;;;;;;4972666;28;20070;-81
2022/11/15 00:36:48;;;;;;;18.88;14.88;;;8.50;99.90;;;;;;4972152;28;20046;-81
2022/11/15 00:39:13;;;;;;;20.42;15.32;;;8.50;99.90;;;;;;4991296;28;20181;-81
2022/11/15 00:41:39;;;;;;;21.58;15.07;;;8.50;99.90;;;;;;4989329;28;20054;-81
2022/11/15 00:44:04;;;;;;;20.10;15.02;;;8.50;99.90;;;;;;4991375;28;20042;-81
2022/11/15 00:46:30;;;;;;;19.98;15.25;;;8.50;99.90;;;;;;4987052;28;20093;-81
2022/11/15 00:48:56;;;;;;;21.55;15.82;;;8.50;99.90;;;;;;4971326;28;20050;-81
2022/11/15 00:51:21;;;;;;;21.92;16.63;;;8.50;99.90;;;;;;4973421;28;20039;-81
2022/11/15 00:53:47;;;;;;;23.30;17.02;;;8.50;99.90;;;;;;4988024;28;20121;-81
2022/11/15 00:56:12;;;;;;;20.73;16.10;;;8.50;99.90;;;;;;4989355;28;20108;-81
2022/11/15 00:58:38;;;;;;;24.02;17.80;;;8.50;99.90;;;;;;4991017;28;20038;-81
2022/11/15 01:01:12;;;;;;;23.58;16.40;;;8.50;99.90;;;;;;4989151;28;20046;-81
2022/11/15 01:03:39;;;;;;;20.67;16.10;;;8.50;99.90;;;;;;4967890;28;20121;-81
2022/11/15 01:06:05;;;;;;;22.20;16.08;;;8.40;99.90;;;;;;4972053;28;20132;-81
2022/11/15 01:08:31;;;;;;;22.90;17.85;;;8.50;99.90;;;;;;4971385;28;20039;-81
2022/11/15 01:11:12;;;;;;;21.48;15.57;;;8.40;99.90;;;;;;4970713;28;20383;-81
2022/11/15 01:13:39;;;;;;;23.15;16.65;;;8.40;99.90;;;;;;4971868;28;20067;-81
2022/11/15 01:16:07;;;;;;;22.67;17.17;;;8.40;99.90;;;;;;4967830;28;20086;-81
2022/11/15 01:18:33;;;;;;;21.73;15.95;;;8.50;99.90;;;;;;4972181;28;20367;-81
2022/11/15 01:20:58;;;;;;;20.92;16.42;;;8.40;99.90;;;;;;5001652;28;20054;-81
2022/11/15 01:23:24;;;;;;;20.70;16.13;;;8.40;99.90;;;;;;4987339;28;20038;-81
2022/11/15 01:25:50;;;;;;;19.90;16.00;;;8.40;99.90;;;;;;4970781;28;20051;-81
2022/11/15 01:28:15;;;;;;;22.65;16.95;;;8.50;99.90;;;;;;4970835;28;20073;-81
2022/11/15 01:30:41;;;;;;;21.90;16.45;;;8.50;99.90;;;;;;4971915;28;20039;-81
2022/11/15 01:33:06;;;;;;;22.02;16.63;;;8.40;99.90;;;;;;4972286;28;20039;-81
2022/11/15 01:35:32;;;;;;;23.30;17.02;;;8.40;99.90;;;;;;4974469;28;20035;-81
2022/11/15 01:37:58;;;;;;;22.75;16.02;;;8.40;99.90;;;;;;4974650;28;20046;-81
2022/11/15 01:40:23;;;;;;;23.55;16.55;;;8.40;99.90;;;;;;4976705;28;20069;-81
2022/11/15 01:42:49;;;;;;;23.67;16.58;;;8.40;99.90;;;;;;4976302;28;20058;-81
2022/11/15 01:45:15;;;;;;;22.80;15.63;;;8.40;99.90;;;;;;4988682;28;20038;-81
2022/11/15 01:47:46;;;;;;;24.73;17.00;;;8.40;99.90;;;;;;4985540;28;20434;-81
2022/11/15 01:50:17;;;;;;;24.08;16.70;;;8.40;99.90;;;;;;4980302;28;20137;-81
2022/11/15 01:52:43;;;;;;;25.02;16.40;;;8.40;99.90;;;;;;4960647;28;20118;-81
2022/11/15 01:55:15;;;;;;;25.83;16.60;;;8.40;99.90;;;;;;4957690;28;20194;-81
2022/11/15 01:57:42;;;;;;;26.00;17.15;;;8.40;99.90;;;;;;4976913;28;20046;-81
2022/11/15 02:00:09;;;;;;;25.67;17.55;;;8.40;99.90;;;;;;4976473;28;20043;-81
2022/11/15 02:02:36;;;;;;;28.98;18.42;;;8.40;99.90;;;;;;4979967;28;20038;-80
2022/11/15 02:05:03;;;;;;;24.83;17.30;;;8.40;99.90;;;;;;4967587;28;20047;-81
2022/11/15 02:07:30;;;;;;;26.48;17.52;;;8.40;99.90;;;;;;4957614;29;20043;-81
2022/11/15 02:10:01;;;;;;;23.65;15.70;;;8.40;99.90;;;;;;4968967;28;20046;-81
2022/11/15 02:12:27;;;;;;;23.90;16.75;;;8.30;99.90;;;;;;4976212;28;20043;-81
2022/11/15 02:14:54;;;;;;;24.40;16.73;;;8.40;99.90;;;;;;4957241;28;20061;-81
2022/11/15 02:17:29;;;;;;;23.23;15.88;;;8.40;99.90;;;;;;4961480;28;20451;-81
2022/11/15 02:20:28;;;;;;;22.17;15.35;;;8.40;99.90;;;;;;4961518;28;20048;-81
2022/11/15 02:23:12;;;;;;;21.35;15.52;;;8.40;99.90;;;;;;4973832;28;20554;-81
2022/11/15 02:26:10;;;;;;;26.42;17.77;;;8.40;99.90;;;;;;4961384;28;20110;-81
2022/11/15 02:28:38;;;;;;;21.90;15.90;;;8.40;99.90;;;;;;4956997;29;20491;-81
2022/11/15 02:31:13;;;;;;;23.20;16.13;;;8.40;99.90;;;;;;4963471;28;20043;-81
2022/11/15 02:33:53;;;;;;;21.10;15.70;;;8.40;99.90;;;;;;4957507;28;20035;-81
2022/11/15 02:36:30;;;;;;;22.65;15.52;;;8.40;99.90;;;;;;4956054;28;20198;-81
2022/11/15 02:39:27;;;;;;;20.35;14.73;;;8.40;99.90;;;;;;4956051;28;20039;-81
2022/11/15 02:43:56;;;;;;;23.15;16.10;;;8.40;99.90;;;;;;4957915;28;20067;-81
2022/11/15 02:44:55;;;;;;;21.95;15.25;;;8.40;99.90;;;;;;4968086;28;20090;-81
2022/11/15 02:47:23;;;;;;;23.40;16.15;;;8.40;99.90;;;;;;4964927;28;20073;-81
2022/11/15 02:49:51;;;;;;;24.38;16.85;;;8.40;99.90;;;;;;4967341;28;20042;-81
2022/11/15 02:52:20;;;;;;;25.63;17.25;;;8.40;99.90;;;;;;4972378;28;20074;-81
2022/11/15 02:54:55;;;;;;;24.23;16.20;;;8.40;99.90;;;;;;4966025;28;20043;-81
2022/11/15 02:57:40;;;;;;;22.33;14.27;;;8.40;99.90;;;;;;4987346;28;20083;-81
2022/11/15 03:00:15;;;;;;;25.10;15.90;;;8.40;99.90;;;;;;4990868;28;20074;-81
2022/11/15 03:03:18;;;;;;;21.77;15.02;;;8.50;99.90;;;;;;4988443;28;20104;-81
2022/11/15 03:06:01;;;;;;;22.80;15.65;;;8.40;99.90;;;;;;4970246;28;20043;-81
2022/11/15 03:08:43;;;;;;;21.02;14.48;;;8.40;99.90;;;;;;4962153;28;20038;-81
2022/11/15 03:11:13;;;;;;;21.88;15.07;;;8.50;99.90;;;;;;4959878;28;20166;-81
2022/11/15 03:13:50;;;;;;;23.80;15.23;;;8.50;99.90;;;;;;4974052;28;20129;-81
2022/11/15 03:16:27;;;;;;;25.98;15.82;;;8.50;99.90;;;;;;4983465;28;20487;-81
2022/11/15 03:19:04;;;;;;;24.80;16.42;;;8.50;99.90;;;;;;4957059;28;20039;-81
2022/11/15 03:21:32;;;;;;;31.25;18.05;;;8.50;99.90;;;;;;4970913;28;20035;-81
2022/11/15 03:24:00;;;;;;;29.65;17.92;;;8.50;99.90;;;;;;4974906;28;20050;-81
2022/11/15 03:26:27;;;;;;;22.58;14.73;;;8.50;99.90;;;;;;4971320;28;20078;-81
2022/11/15 03:29:01;;;;;;;21.80;15.02;;;8.50;99.90;;;;;;4969065;28;20644;-81
2022/11/15 03:31:48;;;;;;;22.38;15.73;;;8.50;99.90;;;;;;4963461;28;20047;-81
2022/11/15 03:34:43;;;;;;;22.17;14.77;;;8.50;99.90;;;;;;4956273;28;20046;-81
2022/11/15 03:37:11;;;;;;;25.80;15.82;;;8.50;99.90;;;;;;4973176;28;20065;-81
2022/11/15 03:39:37;;;;;;;25.88;16.02;;;8.50;99.90;;;;;;4974978;28;20043;-81
2022/11/15 03:42:23;;;;;;;31.67;17.77;;;8.50;99.90;;;;;;4972476;28;20069;-81
2022/11/15 03:44:49;;;;;;;25.13;16.10;;;8.50;99.90;;;;;;4957285;28;20055;-81
2022/11/15 03:47:27;;;;;;;32.13;17.90;;;8.50;99.90;;;;;;4956971;28;20411;-81
2022/11/15 03:49:58;;;;;;;37.25;18.67;;;8.60;99.90;;;;;;4959139;28;20043;-81
2022/11/15 03:52:24;;;;;;;27.13;16.50;;;8.60;99.90;;;;;;4972446;28;20089;-81
2022/11/15 03:54:55;;;;;;;29.15;16.23;;;8.60;99.90;;;;;;4956249;28;20048;-82
2022/11/15 03:57:21;;;;;;;38.55;20.88;;;8.60;99.90;;;;;;4955286;28;20046;-81
2022/11/15 03:59:46;;;;;;;28.77;17.15;;;8.60;99.90;;;;;;4966282;28;20047;-82
2022/11/15 04:02:12;;;;;;;30.83;17.90;;;8.60;99.90;;;;;;4954217;28;20118;-82
2022/11/15 04:04:38;;;;;;;28.40;17.75;;;8.60;99.90;;;;;;4963301;28;20514;-81
2022/11/15 04:07:03;;;;;;;31.45;17.73;;;8.60;99.90;;;;;;4965615;28;20055;-82
2022/11/15 04:09:29;;;;;;;28.77;16.75;;;8.60;99.90;;;;;;4956389;28;20042;-81
2022/11/15 04:11:55;;;;;;;29.58;17.58;;;8.60;99.90;;;;;;4965297;28;20066;-81
2022/11/15 04:14:21;;;;;;;28.33;16.73;;;8.60;99.90;;;;;;4955314;28;20459;-81
2022/11/15 04:16:46;;;;;;;28.63;16.73;;;8.60;99.90;;;;;;4963986;28;20403;-81
2022/11/15 04:24:40;;;;;;;27.13;16.77;;;8.70;99.90;;;;;;4965955;28;20050;-81
2022/11/15 04:27:05;;;;;;;30.10;17.00;;;8.70;99.90;;;;;;4958306;28;20039;-82
2022/11/15 04:29:34;;;;;;;29.80;18.05;;;8.70;99.90;;;;;;4955095;28;20043;-81
2022/11/15 04:32:00;;;;;;;34.20;19.67;;;8.70;99.90;;;;;;4962628;28;20047;-81
2022/11/15 04:34:26;;;;;;;28.42;17.65;;;8.70;99.90;;;;;;4953420;29;20134;-81
2022/11/15 04:39:35;;;;;;;39.60;22.08;;;8.70;99.90;;;;;;4955074;28;20472;-81
2022/11/15 04:42:01;;;;;;;31.73;18.13;;;8.80;99.90;;;;;;4966044;28;20098;-81
2022/11/15 04:44:26;;;;;;;34.15;19.52;;;8.80;99.90;;;;;;4971209;28;20407;-81
2022/11/15 04:46:52;;;;;;;37.92;21.73;;;8.80;99.90;;;;;;4960734;28;20083;-82
2022/11/15 04:49:18;;;;;;;34.30;19.05;;;8.80;99.90;;;;;;4953772;29;20047;-81
2022/11/15 04:51:44;;;;;;;36.00;20.17;;;8.80;99.90;;;;;;4962928;28;20373;-82
2022/11/15 04:54:09;;;;;;;29.33;17.67;;;8.80;99.90;;;;;;4968999;28;20066;-81
2022/11/15 04:56:35;;;;;;;42.58;21.33;;;8.80;99.90;;;;;;4969039;28;20039;-81
2022/11/15 04:59:00;;;;;;;43.35;22.33;;;8.80;99.90;;;;;;4962240;28;20051;-81
2022/11/15 05:01:26;;;;;;;38.65;20.52;;;8.90;99.90;;;;;;4967404;28;20054;-81
2022/11/15 05:06:35;;;;;;;29.23;17.33;;;8.90;99.90;;;;;;4962584;28;20039;-81
2022/11/15 05:09:01;;;;;;;53.83;24.88;;;8.90;99.90;;;;;;4960624;28;20055;-82
2022/11/15 05:11:27;;;;;;;40.00;21.08;;;8.90;99.90;;;;;;4980264;28;20125;-82
2022/11/15 05:13:53;;;;;;;41.70;21.30;;;9.00;99.90;;;;;;4960929;28;20425;-82
2022/11/15 05:16:19;;;;;;;35.22;19.70;;;9.10;99.90;;;;;;4970496;28;20050;-82
2022/11/15 05:18:44;;;;;;;33.40;19.13;;;9.00;99.90;;;;;;4959095;28;20102;-82
2022/11/15 05:21:13;;;;;;;46.75;25.33;;;9.00;99.90;;;;;;4959538;28;20447;-82
2022/11/15 05:23:39;;;;;;;41.40;22.08;;;9.10;99.90;;;;;;4967191;28;20043;-82
2022/11/15 05:26:06;;;;;;;41.28;22.73;;;9.00;99.90;;;;;;4972912;28;20483;-82
2022/11/15 05:28:33;;;;;;;39.92;22.10;;;9.10;99.90;;;;;;4971131;28;20081;-81
2022/11/15 05:31:03;;;;;;;38.33;22.05;;;9.10;99.90;;;;;;4976222;28;20407;-82
2022/11/15 05:33:29;;;;;;;54.53;28.23;;;9.10;99.90;;;;;;4974596;28;20035;-82
2022/11/15 05:36:04;;;;;;;45.80;23.58;;;9.10;99.90;;;;;;4957618;28;20043;-82
2022/11/15 05:38:30;;;;;;;36.55;20.95;;;9.10;99.90;;;;;;4957321;28;20047;-82
2022/11/15 05:40:56;;;;;;;47.97;25.08;;;9.20;99.90;;;;;;4956280;28;20053;-82
2022/11/15 05:43:22;;;;;;;42.97;23.83;;;9.20;99.90;;;;;;4957309;28;20476;-82
2022/11/15 05:45:48;;;;;;;46.58;24.95;;;9.20;99.90;;;;;;4956649;28;20051;-82
2022/11/15 05:48:14;;;;;;;42.33;24.38;;;9.30;99.90;;;;;;4963086;28;20046;-82
2022/11/15 05:50:43;;;;;;;37.67;21.23;;;9.30;99.90;;;;;;4968632;28;20373;-82
2022/11/15 05:53:10;;;;;;;33.90;21.20;;;9.30;99.90;;;;;;4967798;28;20035;-82
2022/11/15 05:55:38;;;;;;;35.80;22.08;;;9.30;99.90;;;;;;4961277;28;20074;-82
2022/11/15 05:58:04;;;;;;;30.42;19.23;;;9.30;99.90;;;;;;4958625;28;20043;-82
2022/11/15 06:00:29;;;;;;;44.97;24.17;;;9.40;99.90;;;;;;4971689;28;20035;-82
2022/11/15 06:02:55;;;;;;;44.60;26.92;;;9.30;99.90;;;;;;4968243;28;20035;-81
2022/11/15 06:05:21;;;;;;;34.78;21.55;;;9.40;99.90;;;;;;4962325;28;20043;-82
2022/11/15 06:07:46;;;;;;;36.17;23.02;;;9.40;99.90;;;;;;4968738;28;20502;-81
2022/11/15 06:10:12;;;;;;;31.45;19.60;;;9.40;99.90;;;;;;4974965;28;20095;-81
2022/11/15 06:12:37;;;;;;;44.40;24.38;;;9.50;99.90;;;;;;4972262;28;20057;-82
2022/11/15 06:15:03;;;;;;;31.77;20.42;;;9.50;99.90;;;;;;4975375;28;20053;-81
2022/11/15 06:17:29;;;;;;;46.90;26.35;;;9.50;99.90;;;;;;4975207;28;20505;-81
2022/11/15 06:19:54;;;;;;;44.92;25.98;;;9.50;99.90;;;;;;4971837;28;20050;-81
2022/11/15 06:22:20;;;;;;;49.90;27.48;;;9.50;99.90;;;;;;4967811;28;20058;-82
2022/11/15 06:24:46;;;;;;;26.98;18.10;;;9.60;99.90;;;;;;4974231;28;20122;-81
2022/11/15 06:27:12;;;;;;;44.22;24.60;;;9.60;99.90;;;;;;4978091;28;20399;-83
2022/11/15 06:29:37;;;;;;;28.40;18.88;;;9.60;99.90;;;;;;4955422;29;20082;-82
2022/11/15 06:32:03;;;;;;;37.22;22.48;;;9.60;99.90;;;;;;4980730;28;20082;-81
2022/11/15 06:34:44;;;;;;;42.88;25.23;;;9.60;99.90;;;;;;4973016;28;20055;-86
2022/11/15 06:37:35;;;;;;;38.08;23.98;;;9.70;99.90;;;;;;4973512;28;20050;-87
2022/11/15 06:40:42;;;;;;;35.60;21.85;;;9.70;99.90;;;;;;4974714;28;20138;-86
2022/11/15 06:43:15;;;;;;;44.33;24.33;;;9.70;99.90;;;;;;4967838;23;20091;-81
2022/11/15 06:45:40;;;;;;;39.90;22.25;;;9.70;99.90;;;;;;5014316;28;20054;-81
2022/11/15 06:48:06;;;;;;;28.35;19.00;;;9.80;99.90;;;;;;5014435;28;20038;-81
2022/11/15 06:50:31;;;;;;;41.80;24.63;;;9.80;99.90;;;;;;5025254;28;20045;-81
2022/11/15 06:53:02;;;;;;;32.72;21.02;;;9.80;99.90;;;;;;5018130;28;20486;-81
2022/11/15 06:55:27;;;;;;;34.35;21.50;;;9.80;99.90;;;;;;5017306;28;20045;-81
2022/11/15 06:57:53;;;;;;;37.80;23.08;;;9.80;99.90;;;;;;5034370;28;20033;-81
2022/11/15 07:00:20;;;;;;;35.30;22.25;;;9.90;99.90;;;;;;5033248;28;20607;-81
2022/11/15 07:02:46;;;;;;;33.08;20.15;;;9.90;99.90;;;;;;5034256;28;20116;-81
2022/11/15 07:05:13;;;;;;;44.03;25.75;;;9.90;99.90;;;;;;5023183;28;20500;-81
2022/11/15 07:07:39;;;;;;;40.13;23.65;;;9.90;99.90;;;;;;5026754;28;20041;-81
2022/11/15 07:10:05;;;;;;;33.60;21.23;;;9.90;99.90;;;;;;5014522;28;20065;-81
2022/11/15 07:12:31;;;;;;;40.80;25.02;;;10.00;99.90;;;;;;5014367;28;20045;-81
2022/11/15 07:14:57;;;;;;;36.17;22.08;;;10.00;99.90;;;;;;5027090;28;20045;-81
2022/11/15 07:17:22;;;;;;;30.15;20.48;;;10.00;99.90;;;;;;5019643;28;20496;-82
2022/11/15 07:19:48;;;;;;;51.13;29.60;;;10.00;99.90;;;;;;5015142;28;20042;-81
2022/11/15 07:22:13;;;;;;;40.30;25.05;;;10.10;99.90;;;;;;5044595;28;20052;-81
2022/11/15 07:24:39;;;;;;;37.78;23.17;;;10.10;99.90;;;;;;5019732;28;20044;-82
2022/11/15 07:27:04;;;;;;;40.08;24.77;;;10.20;99.90;;;;;;5016192;28;20470;-81
2022/11/15 07:29:30;;;;;;;42.40;26.48;;;10.20;99.90;;;;;;5014821;28;20041;-81
2022/11/15 07:31:56;;;;;;;45.35;26.17;;;10.10;99.90;;;;;;5048196;28;20398;-81
2022/11/15 07:34:22;;;;;;;31.15;20.55;;;10.20;99.90;;;;;;5032054;28;20103;-81
2022/11/15 07:36:47;;;;;;;41.83;26.02;;;10.20;99.90;;;;;;5015806;28;20046;-82
2022/11/15 07:39:13;;;;;;;39.28;25.85;;;10.20;99.90;;;;;;5018316;28;20503;-80
2022/11/15 07:41:39;;;;;;;39.63;22.65;;;10.20;99.90;;;;;;5031902;28;20081;-81
2022/11/15 07:44:05;;;;;;;42.72;24.63;;;10.20;99.90;;;;;;5032587;28;20143;-81
2022/11/15 07:46:31;;;;;;;31.55;20.45;;;10.30;99.90;;;;;;5047712;28;20057;-80
2022/11/15 07:48:57;;;;;;;29.75;19.75;;;10.30;99.90;;;;;;5032578;28;20099;-81
2022/11/15 07:51:22;;;;;;;29.95;19.65;;;10.30;99.90;;;;;;5021154;28;20042;-81
2022/11/15 07:53:48;;;;;;;40.60;23.48;;;10.30;99.90;;;;;;5025796;28;20374;-82
2022/11/15 07:56:13;;;;;;;38.28;22.67;;;10.30;99.90;;;;;;5017290;28;20072;-80
2022/11/15 07:58:39;;;;;;;37.45;23.85;;;10.30;99.90;;;;;;5015752;28;20138;-81
2022/11/15 08:01:06;;;;;;;34.05;22.25;;;10.40;99.90;;;;;;5017558;28;20041;-80
2022/11/15 08:03:32;;;;;;;35.92;23.10;;;10.40;99.90;;;;;;5018657;28;20099;-80
2022/11/15 08:05:58;;;;;;;23.58;16.65;;;10.40;99.90;;;;;;5020889;28;20494;-80
2022/11/15 08:08:24;;;;;;;30.27;20.40;;;10.40;99.90;;;;;;5025717;28;20103;-80
2022/11/15 08:10:49;;;;;;;30.27;19.20;;;10.40;99.90;;;;;;5021464;28;20046;-80
2022/11/15 08:13:15;;;;;;;26.02;19.13;;;10.40;99.90;;;;;;5012179;28;20041;-80
2022/11/15 08:15:43;;;;;;;34.85;21.70;;;10.40;99.90;;;;;;5025357;28;20084;-80
2022/11/15 08:18:12;;;;;;;25.33;16.33;;;10.40;99.90;;;;;;5028910;28;20460;-80
2022/11/15 08:20:37;;;;;;;30.30;21.52;;;10.50;99.90;;;;;;5044986;28;20080;-80
2022/11/15 08:23:04;;;;;;;28.30;18.98;;;10.50;99.90;;;;;;5045245;28;20081;-80
2022/11/15 08:25:31;;;;;;;23.98;17.13;;;10.50;99.90;;;;;;5045713;28;20088;-80
2022/11/15 08:28:00;;;;;;;27.90;18.40;;;10.50;99.90;;;;;;5016907;28;20038;-81
2022/11/15 08:30:26;;;;;;;24.20;17.90;;;10.50;99.90;;;;;;5020363;28;20049;-82
2022/11/15 08:32:53;;;;;;;33.25;21.30;;;10.50;99.90;;;;;;5027269;28;20037;-83
2022/11/15 08:35:20;;;;;;;24.27;17.55;;;10.50;99.90;;;;;;5020148;28;20052;-82
2022/11/15 08:37:45;;;;;;;26.45;19.40;;;10.60;99.90;;;;;;5013768;28;20038;-83
2022/11/15 08:40:13;;;;;;;24.48;16.92;;;10.60;99.90;;;;;;5011339;28;20087;-80
2022/11/15 08:42:39;;;;;;;26.13;18.75;;;10.60;99.90;;;;;;5043868;28;20041;-80
2022/11/15 08:45:05;;;;;;;29.50;20.15;;;10.60;99.90;;;;;;5044894;28;20068;-80
2022/11/15 08:47:31;;;;;;;28.40;19.77;;;10.60;99.90;;;;;;5043096;28;20481;-80
2022/11/15 08:49:57;;;;;;;33.50;21.05;;;10.70;99.90;;;;;;5017705;28;20041;-80
2022/11/15 08:52:23;;;;;;;27.58;18.23;;;10.70;99.90;;;;;;5016618;28;20037;-80
2022/11/15 08:54:48;;;;;;;36.47;21.40;;;10.70;99.90;;;;;;5030784;28;20045;-80
2022/11/15 08:57:14;;;;;;;24.35;17.00;;;10.70;99.90;;;;;;5029897;28;20077;-80
2022/11/15 08:59:40;;;;;;;21.73;16.55;;;10.80;99.90;;;;;;5013744;28;20034;-80
2022/11/15 09:02:05;;;;;;;19.73;15.35;;;10.80;99.90;;;;;;5015978;28;20045;-80
2022/11/15 09:04:32;;;;;;;23.00;16.52;;;10.80;99.90;;;;;;5019484;28;20492;-81
2022/11/15 09:06:57;;;;;;;29.58;18.20;;;10.80;99.90;;;;;;5043359;28;20041;-81
2022/11/15 09:09:23;;;;;;;25.70;17.25;;;10.90;99.90;;;;;;5023412;28;20132;-81
2022/11/15 09:11:52;;;;;;;26.50;16.42;;;10.90;99.90;;;;;;5019514;28;20025;-87
2022/11/15 09:14:17;;;;;;;25.02;17.05;;;10.90;99.90;;;;;;5041097;28;20046;-80
2022/11/15 09:24:05;;;;;;;25.27;17.75;;;11.00;99.90;;;;;;5541131;23;20054;-92
2022/11/15 09:29:52;;;;;;;30.17;18.08;;;11.00;99.90;;;;;;4971575;28;20047;-82
2022/11/15 09:32:18;;;;;;;19.15;14.57;;;11.00;99.90;;;;;;4974067;28;20057;-82
2022/11/15 09:34:46;;;;;;;23.50;15.52;;;11.00;99.90;;;;;;4973879;28;20046;-82
2022/11/15 09:37:12;;;;;;;23.50;16.90;;;11.10;99.90;;;;;;4973069;28;20434;-82
2022/11/15 09:39:38;;;;;;;22.38;16.58;;;11.10;99.90;;;;;;4972323;28;20130;-82
2022/11/15 09:42:10;;;;;;;19.58;13.68;;;11.10;99.90;;;;;;4973104;28;20055;-83
2022/11/15 09:44:50;;;;;;;19.53;15.43;;;11.20;99.90;;;;;;4974106;28;20130;-82
2022/11/15 09:47:18;;;;;;;27.38;19.17;;;11.20;99.90;;;;;;4974029;28;20043;-83
2022/11/15 09:49:44;;;;;;;19.77;15.18;;;11.20;99.90;;;;;;4971870;28;20050;-82
2022/11/15 09:52:11;;;;;;;26.05;17.98;;;11.20;99.90;;;;;;4974228;28;20043;-82
2022/11/15 09:54:38;;;;;;;25.35;15.55;;;11.20;99.90;;;;;;4974583;28;20045;-82
2022/11/15 09:57:33;;;;;;;25.83;18.20;;;11.30;99.90;;;;;;4975958;28;20074;-82
2022/11/15 10:00:10;;;;;;;22.02;15.68;;;11.30;99.90;;;;;;4977829;28;20047;-82
2022/11/15 10:02:54;;;;;;;24.50;17.60;;;11.30;99.90;;;;;;4976173;28;20506;-83
2022/11/15 10:05:21;;;;;;;;;;;11.30;99.90;;;;;;4976460;28;20055;-82
2022/11/15 10:08:03;;;;;;;21.20;15.27;;;11.30;99.90;;;;;;4975773;28;19918;-82
2022/11/15 10:10:46;;;;;;;24.10;16.47;;;11.30;99.90;;;;;;4975581;28;20442;-82
2022/11/15 10:13:23;;;;;;;18.42;13.52;;;11.40;99.90;;;;;;4975799;28;20050;-83
2022/11/15 10:15:50;;;;;;;24.08;14.90;;;11.40;99.90;;;;;;4976844;28;20402;-82
2022/11/15 10:18:34;;;;;;;27.10;17.15;;;11.40;99.90;;;;;;4975231;28;20054;-82
2022/11/15 10:21:15;;;;;;;24.05;16.00;;;11.50;99.90;;;;;;4976908;28;20081;-82
2022/11/15 10:23:40;;;;;;;22.02;14.95;;;11.50;99.90;;;;;;4974990;28;20061;-82
2022/11/15 10:26:10;;;;;;;24.88;16.80;;;11.50;99.90;;;;;;4974926;28;20406;-82
2022/11/15 10:28:36;;;;;;;19.35;14.98;;;11.50;99.90;;;;;;4975790;28;20047;-82
2022/11/15 10:31:02;;;;;;;22.33;15.98;;;11.60;99.90;;;;;;4975465;28;20549;-82
2022/11/15 10:33:35;;;;;;;23.73;14.93;;;11.60;99.90;;;;;;4975158;28;20045;-82
2022/11/15 10:36:09;;;;;;;19.50;14.32;;;11.60;99.90;;;;;;4974911;28;20070;-82
2022/11/15 10:38:50;;;;;;;22.17;15.65;;;11.60;99.90;;;;;;4974980;28;20047;-82
2022/11/15 10:41:32;;;;;;;20.00;14.70;;;11.70;99.90;;;;;;4973575;28;20043;-81
2022/11/15 10:44:06;;;;;;;18.30;14.10;;;11.60;99.90;;;;;;4972942;28;20050;-80
2022/11/15 10:46:34;;;;;;;18.27;13.93;;;11.60;99.90;;;;;;4972972;28;20125;-81
2022/11/15 10:49:20;;;;;;;17.98;12.18;;;11.70;99.90;;;;;;4974164;28;20557;-81
2022/11/15 10:51:54;;;;;;;16.33;12.57;;;11.70;99.90;;;;;;4970526;28;20131;-81
2022/11/15 10:54:29;;;;;;;18.13;12.05;;;11.70;99.90;;;;;;4973636;28;20038;-82
2022/11/15 10:56:59;;;;;;;19.20;12.65;;;11.70;99.90;;;;;;4975931;28;20047;-80
2022/11/15 10:59:28;;;;;;;16.15;11.70;;;11.80;99.90;;;;;;4970522;28;20047;-80
2022/11/15 11:01:54;;;;;;;17.58;10.73;;;11.80;99.90;;;;;;4975047;28;20133;-80
2022/11/15 11:04:19;;;;;;;15.23;9.93;;;11.80;99.90;;;;;;4976065;28;20130;-80
2022/11/15 11:06:52;;;;;;;13.48;9.93;;;11.90;99.90;;;;;;4972910;28;20049;-80
2022/11/15 11:09:37;;;;;;;15.00;8.80;;;11.90;99.90;;;;;;4972436;28;20049;-80
2022/11/15 11:12:06;;;;;;;14.60;8.80;;;11.90;99.90;;;;;;4975169;28;20085;-80
2022/11/15 11:14:36;;;;;;;10.60;7.75;;;12.00;99.90;;;;;;4974318;28;20043;-80
2022/11/15 11:17:11;;;;;;;13.35;7.55;;;12.00;99.90;;;;;;4974184;28;20148;-80
2022/11/15 11:20:01;;;;;;;10.38;6.57;;;12.10;99.90;;;;;;4974075;28;20035;-81
2022/11/15 11:22:59;;;;;;;11.90;7.13;;;12.10;99.90;;;;;;4973331;28;20063;-81
2022/11/15 11:25:35;;;;;;;9.90;4.90;;;12.10;99.90;;;;;;4974587;28;20502;-81
2022/11/15 11:28:32;;;;;;;10.73;4.65;;;12.20;99.90;;;;;;4972803;28;20038;-80
2022/11/15 11:31:24;;;;;;;10.23;5.43;;;12.10;99.90;;;;;;4975689;28;20054;-80
2022/11/15 11:33:59;;;;;;;7.85;4.28;;;12.20;99.90;;;;;;4973616;28;20058;-80
2022/11/15 11:36:45;;;;;;;9.40;4.25;;;12.20;99.90;;;;;;4972272;28;20039;-80
2022/11/15 11:39:41;;;;;;;7.43;3.17;;;12.20;99.90;;;;;;4981396;28;20049;-79
2022/11/15 11:42:29;;;;;;;7.65;3.15;;;12.30;99.90;;;;;;4973168;28;20035;-81
2022/11/15 11:45:13;;;;;;;8.25;2.53;;;12.30;99.90;;;;;;4968684;28;20057;-86
2022/11/15 11:47:42;;;;;;;9.38;4.25;;;12.30;99.90;;;;;;4975779;28;20044;-86
2022/11/15 11:50:18;;;;;;;8.05;4.20;;;12.30;99.90;;;;;;4972611;28;20043;-83
2022/11/15 11:52:57;;;;;;;7.30;3.25;;;12.30;99.90;;;;;;4971598;28;20074;-82
2022/11/15 11:55:44;;;;;;;9.85;3.70;;;12.30;99.90;;;;;;4973127;28;20051;-82
2022/11/15 11:58:26;;;;;;;7.72;3.22;;;12.30;99.90;;;;;;4954947;28;20488;-82
2022/11/15 12:00:59;;;;;;;9.85;2.70;;;12.30;99.90;;;;;;4966355;28;20046;-82
2022/11/15 12:04:07;;;;;;;7.78;3.90;;;12.30;99.90;;;;;;4970604;28;20105;-82
2022/11/15 12:06:46;;;;;;;7.60;2.42;;;12.30;99.90;;;;;;4968374;28;20054;-82
2022/11/15 12:09:14;;;;;;;7.30;2.63;;;12.30;99.90;;;;;;4963634;28;20047;-84
2022/11/15 12:12:05;;;;;;;8.63;2.97;;;12.30;99.90;;;;;;4971796;28;20074;-82
2022/11/15 12:14:56;;;;;;;8.88;2.67;;;12.30;99.90;;;;;;4972708;28;20046;-82
2022/11/15 12:17:25;;;;;;;6.97;3.15;;;12.30;99.90;;;;;;4967113;28;20065;-82
2022/11/15 12:19:55;;;;;;;11.05;3.20;;;12.30;99.90;;;;;;4972720;28;20046;-83
2022/11/15 12:22:46;;;;;;;7.75;2.95;;;12.30;99.90;;;;;;4973642;28;20042;-83
2022/11/15 12:25:21;;;;;;;7.57;3.17;;;12.30;99.90;;;;;;4977870;28;20039;-82
2022/11/15 12:27:56;;;;;;;6.22;3.08;;;12.30;99.90;;;;;;4993027;28;20505;-83
2022/11/15 12:30:23;;;;;;;5.82;3.35;;;12.30;99.90;;;;;;4992068;28;20406;-84
2022/11/15 12:32:58;;;;;;;9.85;3.40;;;12.30;99.90;;;;;;4975297;23;20210;-85
2022/11/15 12:35:40;;;;;;;8.65;3.50;;;12.30;99.90;;;;;;4934973;29;20495;-85
2022/11/15 12:38:12;;;;;;;9.00;3.65;;;12.30;99.90;;;;;;4951667;29;20043;-85
2022/11/15 12:40:59;;;;;;;10.60;3.70;;;12.30;99.90;;;;;;4953168;29;20462;-83
2022/11/15 12:43:42;;;;;;;8.63;3.60;;;12.40;99.90;;;;;;4955986;28;20391;-84
2022/11/15 12:46:21;;;;;;;8.20;3.80;;;12.40;99.90;;;;;;4946003;29;20046;-84
2022/11/15 12:48:53;;;;;;;7.75;3.53;;;12.40;99.90;;;;;;4946601;28;20047;-83
2022/11/15 12:51:43;;;;;;;6.55;3.50;;;12.40;99.90;;;;;;4934108;29;20047;-84
2022/11/15 12:54:23;;;;;;;8.85;3.67;;;12.50;99.90;;;;;;4939201;28;20125;-82
2022/11/15 12:57:07;;;;;;;8.57;3.30;;;12.50;99.90;;;;;;4953711;28;20114;-82
2022/11/15 12:59:52;;;;;;;;;;;12.50;99.90;;;;;;4944122;29;20512;-82
2022/11/15 13:02:26;;;;;;;6.07;2.92;;;12.40;99.90;;;;;;4954525;28;19922;-83
2022/11/15 13:04:55;;;;;;;7.68;3.53;;;12.50;99.90;;;;;;4952745;29;20067;-83
2022/11/15 13:07:41;;;;;;;8.93;2.83;;;12.50;99.90;;;;;;4953816;28;20043;-85
2022/11/15 13:10:10;;;;;;;7.30;2.90;;;12.50;99.90;;;;;;4951785;28;20047;-84
2022/11/15 13:12:41;;;;;;;10.00;2.55;;;12.50;99.90;;;;;;4952536;28;20112;-82
2022/11/15 13:15:12;;;;;;;6.05;2.50;;;12.60;99.90;;;;;;4954346;28;20407;-84